Amsden, Ohio
Current Conditions -  °F | °C
As of 8:53 AM on Monday 24 Nov 2014 (Local Time) from KFDY Reporting Station
Thunderstorm Thunderstorm  
Wind Chill: 60°   Ceiling: 2800
Heat Index: 60°   Visibility: 10mi
Dew Point: 54°   Wind: 25mph
Humidity: 80%   Direction: 200°SSW
Pressure: 29.19"   Gusts: 33mph
Location:  41.22°N, 83.33°W
Report Text: KFDY 241353Z AUTO 20022G29KT 10SM -TSRA BKN028 OVC038 16/12 A2919 RMK AO2 PK WND 20034/1339 LTG DSNT ALQDS RAE36B45 TSB40 SLP879 P0003 T01560122
Loading
Personal Weather Stations






























Interactive Weather Map New forecast layout! Learn more

10-Day Weather Forecast

Advertisements
Track Severe Weather on mobile